Terminal Aerodrome Forecast
Issued by NWS Lake Charles, LA

Home | Current Version | Previous Version | Text Only | Print | Product List | Glossary On
Versions: 1 2 3 4 5 6 7 8 9 10 11 12 13 14 15 16 17 18 19 20 21 22 23 24 25 26 27 28 29 30 31
000
FTUS44 KLCH 210615 AAA
TAFBPT
TAF AMD
KBPT 210615Z 2106/2206 00000KT 2SM BR SCT002 BKN040
      TEMPO 2106/2110 1/4SM FG OVC002
     FM211000 00000KT 1/4SM FG OVC002
      TEMPO 2110/2114 2SM BR SCT002 BKN025
     FM211400 VRB05KT 5SM BR BKN025
     FM211700 29008KT P6SM SCT250
     FM220100 32004KT P6SM SKC=

USA.gov is the U.S. government's official web portal to all federal, state and local government web resources and services.